Time;durP1;ratioP1;P1;durP2;ratioP2;P2;SDS_P1;SDS_P2;PMS_P1;PMS_P2;Temp;Humidity;BMP_temperature;BMP_pressure;BME280_temperature;BME280_humidity;BME280_pressure;Samples;Min_cycle;Max_cycle;Signal;HPM_P1;HPM_P2
2020/12/27 00:02:24;;;;;;;6.65;4.70;;;2.50;85.10;;;;;;4988325;28;20070;-56
2020/12/27 00:04:49;;;;;;;5.40;4.00;;;2.40;85.20;;;;;;4988314;28;20068;-59
2020/12/27 00:07:15;;;;;;;5.13;3.83;;;2.40;85.10;;;;;;4990004;28;20038;-58
2020/12/27 00:09:42;;;;;;;5.63;4.07;;;2.40;85.10;;;;;;4987555;28;20030;-55
2020/12/27 00:12:07;;;;;;;5.95;4.03;;;2.50;85.20;;;;;;4989262;28;20030;-57
2020/12/27 00:14:33;;;;;;;6.07;4.20;;;2.40;85.20;;;;;;4983628;28;20097;-56
2020/12/27 00:17:08;;;;;;;5.32;4.05;;;2.40;85.20;;;;;;4989860;28;20069;-65
2020/12/27 00:19:34;;;;;;;;;;;2.40;85.30;;;;;;4988354;28;20050;-57
2020/12/27 00:21:59;;;;;;;5.70;3.97;;;2.40;85.20;;;;;;4990530;28;20007;-56
2020/12/27 00:24:25;;;;;;;7.00;4.38;;;2.40;85.10;;;;;;4988365;28;20076;-56
2020/12/27 00:26:50;;;;;;;7.35;4.28;;;2.40;85.10;;;;;;4989066;28;20041;-56
2020/12/27 00:29:16;;;;;;;7.68;4.00;;;2.40;85.20;;;;;;4988465;28;20032;-57
2020/12/27 00:31:42;;;;;;;6.45;4.60;;;2.40;85.20;;;;;;4990004;28;20018;-59
2020/12/27 00:34:07;;;;;;;5.45;3.83;;;2.40;85.20;;;;;;4990624;28;20054;-56
2020/12/27 00:36:33;;;;;;;6.65;4.03;;;2.40;85.30;;;;;;4988067;28;20026;-58
2020/12/27 00:38:58;;;;;;;5.93;4.10;;;2.40;85.30;;;;;;4989556;28;20482;-58
2020/12/27 00:41:24;;;;;;;6.18;4.25;;;2.40;85.30;;;;;;4978482;28;20038;-57
2020/12/27 00:43:50;;;;;;;6.20;3.90;;;2.40;85.30;;;;;;4989801;28;20057;-58
2020/12/27 00:46:16;;;;;;;4.88;3.75;;;2.30;85.30;;;;;;4953488;28;20403;-57
2020/12/27 00:48:41;;;;;;;6.25;4.45;;;2.40;85.30;;;;;;4988382;28;20036;-58
2020/12/27 00:51:07;;;;;;;5.38;4.05;;;2.40;85.30;;;;;;4988493;28;20034;-61
2020/12/27 00:53:32;;;;;;;6.05;3.85;;;2.30;85.30;;;;;;4987455;28;20138;-57
2020/12/27 00:55:58;;;;;;;5.53;3.75;;;2.40;85.30;;;;;;4989474;28;20042;-56
2020/12/27 00:58:23;;;;;;;5.43;4.22;;;2.40;85.30;;;;;;4983916;28;20482;-57
2020/12/27 01:00:49;;;;;;;4.45;3.63;;;2.30;85.30;;;;;;4989898;28;20390;-58
2020/12/27 01:03:14;;;;;;;5.78;3.72;;;2.30;85.30;;;;;;4988481;28;20026;-59
2020/12/27 01:05:41;;;;;;;6.45;3.90;;;2.30;85.30;;;;;;4987776;28;20054;-55
2020/12/27 01:08:07;;;;;;;6.43;4.07;;;2.40;85.30;;;;;;4983830;28;20030;-57
2020/12/27 01:10:32;;;;;;;5.10;3.63;;;2.30;85.30;;;;;;4972408;28;20049;-56
2020/12/27 01:12:58;;;;;;;4.82;3.92;;;2.30;85.40;;;;;;4989606;28;20474;-56
2020/12/27 01:15:23;;;;;;;9.80;4.15;;;2.30;85.30;;;;;;4989661;28;20482;-59
2020/12/27 01:17:49;;;;;;;8.05;4.15;;;2.30;85.40;;;;;;4978950;28;20062;-59
2020/12/27 01:20:14;;;;;;;6.70;3.80;;;2.30;85.30;;;;;;4978723;28;20109;-58
2020/12/27 01:22:40;;;;;;;6.68;4.13;;;2.30;85.30;;;;;;4978104;28;20026;-58
2020/12/27 01:25:05;;;;;;;5.53;3.80;;;2.30;85.30;;;;;;4983445;28;20470;-58
2020/12/27 01:27:31;;;;;;;5.57;3.58;;;2.30;85.30;;;;;;4990114;28;20034;-56
2020/12/27 01:29:56;;;;;;;5.38;3.80;;;2.30;85.30;;;;;;4986345;28;20045;-58
2020/12/27 01:32:22;;;;;;;6.70;4.22;;;2.30;85.30;;;;;;4983520;28;20098;-57
2020/12/27 01:34:47;;;;;;;5.65;3.83;;;2.20;85.30;;;;;;4969192;28;20027;-56
2020/12/27 01:37:13;;;;;;;4.50;3.47;;;2.20;85.30;;;;;;4987375;28;20537;-58
2020/12/27 01:39:38;;;;;;;5.80;3.63;;;2.20;85.30;;;;;;4970492;28;20018;-56
2020/12/27 01:42:04;;;;;;;5.50;4.00;;;2.20;85.30;;;;;;4988226;28;20382;-58
2020/12/27 01:44:29;;;;;;;7.13;4.20;;;2.20;85.30;;;;;;4979930;28;20394;-58
2020/12/27 01:46:55;;;;;;;5.28;3.60;;;2.20;85.30;;;;;;4977275;28;20053;-56
2020/12/27 01:49:20;;;;;;;5.30;3.65;;;2.20;86.10;;;;;;4977371;28;20038;-56
2020/12/27 01:51:46;;;;;;;5.63;3.70;;;2.20;85.40;;;;;;4977952;28;20069;-58
2020/12/27 01:54:11;;;;;;;4.95;3.30;;;2.20;85.30;;;;;;4977432;28;20110;-59
2020/12/27 01:56:41;;;;;;;5.55;3.88;;;2.20;85.30;;;;;;4980309;28;20061;-56
2020/12/27 01:59:09;;;;;;;4.60;3.30;;;2.20;85.30;;;;;;4982183;28;20456;-57
2020/12/27 02:01:36;;;;;;;5.53;3.58;;;2.20;85.40;;;;;;4983732;28;20030;-56
2020/12/27 02:04:01;;;;;;;6.22;3.90;;;2.20;85.40;;;;;;4981931;28;20027;-56
2020/12/27 02:06:27;;;;;;;6.68;4.45;;;2.10;85.40;;;;;;4987704;28;20068;-58
2020/12/27 02:08:52;;;;;;;5.00;4.00;;;2.20;85.50;;;;;;4979123;28;20061;-57
2020/12/27 02:11:21;;;;;;;6.07;3.80;;;2.20;85.40;;;;;;4978845;28;20031;-56
2020/12/27 02:13:48;;;;;;;6.03;3.50;;;2.30;85.60;;;;;;4978751;28;20150;-57
2020/12/27 02:16:17;;;;;;;4.85;3.78;;;2.10;85.40;;;;;;4984370;28;20022;-56
2020/12/27 02:18:43;;;;;;;5.63;4.00;;;2.10;85.40;;;;;;4990888;28;20038;-57
2020/12/27 02:21:08;;;;;;;5.13;3.90;;;2.10;85.40;;;;;;4993136;28;20034;-57
2020/12/27 02:23:34;;;;;;;5.03;3.58;;;2.10;85.40;;;;;;4965399;28;20050;-58
2020/12/27 02:25:59;;;;;;;5.07;3.55;;;2.10;85.50;;;;;;4974479;28;20023;-57
2020/12/27 02:28:25;;;;;;;4.47;3.53;;;2.10;85.40;;;;;;4987610;28;20060;-58
2020/12/27 02:30:51;;;;;;;4.75;3.28;;;2.10;85.50;;;;;;4989038;28;20467;-56
2020/12/27 02:33:16;;;;;;;8.15;3.40;;;2.10;85.60;;;;;;4984247;28;20039;-57
2020/12/27 02:35:42;;;;;;;4.97;3.45;;;2.10;85.60;;;;;;4979739;28;20471;-59
2020/12/27 02:38:07;;;;;;;5.97;4.30;;;2.10;85.50;;;;;;4978434;28;20058;-59
2020/12/27 02:40:33;;;;;;;5.30;3.80;;;2.00;85.50;;;;;;4979596;28;20027;-58
2020/12/27 02:42:58;;;;;;;4.50;3.53;;;2.10;85.50;;;;;;4987988;28;20029;-58
2020/12/27 02:45:24;;;;;;;3.55;2.95;;;2.00;85.40;;;;;;4979652;28;20528;-58
2020/12/27 02:47:50;;;;;;;4.22;3.70;;;2.00;85.40;;;;;;4981056;28;20034;-58
2020/12/27 02:50:15;;;;;;;4.13;3.22;;;2.00;85.40;;;;;;4977544;28;20035;-56
2020/12/27 02:52:41;;;;;;;4.13;3.10;;;2.00;85.40;;;;;;4982070;28;20030;-57
2020/12/27 02:55:07;;;;;;;4.13;3.40;;;2.10;85.40;;;;;;4986522;28;20434;-58
2020/12/27 02:57:32;;;;;;;5.32;3.80;;;2.10;85.50;;;;;;4988634;28;20026;-57
2020/12/27 02:59:58;;;;;;;4.13;3.55;;;2.00;85.30;;;;;;4979445;28;20386;-55
2020/12/27 03:02:23;;;;;;;4.40;3.33;;;2.00;85.40;;;;;;4986690;28;20113;-58
2020/12/27 03:04:49;;;;;;;5.72;3.20;;;2.00;85.40;;;;;;4980893;28;20211;-56
2020/12/27 03:07:14;;;;;;;4.22;3.25;;;2.00;85.40;;;;;;4984616;28;20030;-61
2020/12/27 03:09:40;;;;;;;5.18;3.40;;;2.00;85.50;;;;;;4981327;28;20086;-57
2020/12/27 03:12:05;;;;;;;6.45;3.45;;;2.00;85.50;;;;;;4980696;28;20034;-57
2020/12/27 03:14:31;;;;;;;6.55;3.35;;;2.00;85.40;;;;;;4979395;28;20387;-57
2020/12/27 03:16:56;;;;;;;4.28;3.35;;;2.00;85.50;;;;;;4975972;28;20082;-55
2020/12/27 03:19:22;;;;;;;4.68;3.28;;;2.00;85.40;;;;;;4984004;28;20034;-57
2020/12/27 03:21:47;;;;;;;4.30;3.22;;;2.00;85.40;;;;;;4990441;28;20382;-59
2020/12/27 03:24:13;;;;;;;4.53;3.25;;;2.00;85.50;;;;;;4987729;28;20474;-58
2020/12/27 03:26:38;;;;;;;5.35;3.33;;;2.00;85.50;;;;;;4979295;28;20085;-56
2020/12/27 03:29:04;;;;;;;5.57;3.65;;;2.00;85.60;;;;;;4978426;28;20027;-57
2020/12/27 03:31:29;;;;;;;4.90;3.60;;;2.00;85.50;;;;;;4988905;28;20034;-59
2020/12/27 03:33:55;;;;;;;5.05;3.42;;;1.90;85.50;;;;;;4963409;28;20027;-59
2020/12/27 03:36:20;;;;;;;4.53;3.15;;;2.00;85.40;;;;;;4983357;28;20026;-57
2020/12/27 03:38:46;;;;;;;4.10;3.10;;;1.90;85.40;;;;;;4983801;28;20026;-57
2020/12/27 03:41:11;;;;;;;5.25;3.70;;;1.90;85.50;;;;;;4983438;28;20430;-58
2020/12/27 03:43:37;;;;;;;4.55;3.50;;;2.00;85.50;;;;;;4975260;28;20050;-58
2020/12/27 03:46:02;;;;;;;4.70;2.92;;;1.90;85.50;;;;;;4990612;28;20471;-56
2020/12/27 03:48:28;;;;;;;4.32;3.08;;;1.90;85.50;;;;;;4991015;28;20034;-58
2020/12/27 03:50:53;;;;;;;5.22;3.30;;;1.90;85.50;;;;;;4984117;28;20034;-56
2020/12/27 03:53:19;;;;;;;5.25;3.30;;;1.90;85.50;;;;;;4982070;28;20022;-56
2020/12/27 03:55:44;;;;;;;4.72;3.13;;;1.90;85.50;;;;;;4977526;28;20028;-56
2020/12/27 03:58:10;;;;;;;5.80;3.40;;;1.90;85.60;;;;;;4954093;28;20482;-56
2020/12/27 04:00:36;;;;;;;4.85;3.45;;;1.90;85.60;;;;;;4979413;28;20496;-58
2020/12/27 04:03:01;;;;;;;5.40;2.92;;;2.00;85.60;;;;;;4962920;28;20034;-57
2020/12/27 04:05:27;;;;;;;5.57;3.13;;;1.90;85.60;;;;;;4976227;28;20540;-59
2020/12/27 04:07:52;;;;;;;4.13;2.80;;;1.90;85.60;;;;;;4961587;28;20030;-59
2020/12/27 04:10:18;;;;;;;7.15;3.40;;;2.00;85.70;;;;;;4941608;28;20034;-60
2020/12/27 04:12:43;;;;;;;4.65;3.40;;;1.90;85.70;;;;;;4954758;28;20475;-60
2020/12/27 04:15:09;;;;;;;5.05;3.28;;;1.90;85.60;;;;;;4967704;28;20034;-61
2020/12/27 04:17:35;;;;;;;5.50;3.03;;;2.20;85.80;;;;;;4954658;28;20042;-62
2020/12/27 04:20:00;;;;;;;5.72;3.33;;;1.90;85.60;;;;;;4948725;28;20034;-59
2020/12/27 04:22:26;;;;;;;4.68;3.47;;;1.90;85.60;;;;;;4944279;28;20042;-61
2020/12/27 04:24:52;;;;;;;4.90;3.38;;;1.90;85.60;;;;;;4956981;28;20552;-60
2020/12/27 04:27:17;;;;;;;4.53;3.40;;;2.10;85.80;;;;;;4953893;28;20405;-59
2020/12/27 04:29:43;;;;;;;4.07;2.92;;;1.80;85.70;;;;;;4966410;28;20030;-61
2020/12/27 04:32:08;;;;;;;5.38;3.45;;;2.10;85.80;;;;;;4977623;28;20030;-59
2020/12/27 04:34:34;;;;;;;4.65;3.20;;;1.80;85.70;;;;;;4972396;28;20062;-61
2020/12/27 04:36:59;;;;;;;3.70;2.90;;;2.20;85.90;;;;;;4968923;28;20541;-59
2020/12/27 04:39:25;;;;;;;5.72;3.65;;;1.80;85.70;;;;;;4954081;28;20037;-61
2020/12/27 04:41:50;;;;;;;4.95;3.55;;;1.80;85.70;;;;;;4986302;28;20629;-61
2020/12/27 04:44:16;;;;;;;4.70;2.97;;;1.80;85.70;;;;;;4956916;28;20499;-59
2020/12/27 04:46:41;;;;;;;4.32;2.97;;;1.90;85.70;;;;;;4976009;28;20034;-59
2020/12/27 04:49:08;;;;;;;4.25;2.90;;;1.80;85.70;;;;;;4939312;28;20038;-61
2020/12/27 04:51:33;;;;;;;4.75;3.22;;;1.90;85.70;;;;;;4970091;28;20069;-59
2020/12/27 04:53:59;;;;;;;3.60;2.90;;;2.20;85.90;;;;;;4958771;28;20475;-59
2020/12/27 04:56:25;;;;;;;5.03;3.15;;;2.00;85.80;;;;;;4955244;28;20109;-61
2020/12/27 04:58:51;;;;;;;4.55;3.05;;;1.80;85.60;;;;;;4982442;28;20038;-59
2020/12/27 05:01:17;;;;;;;5.95;3.10;;;1.80;85.60;;;;;;4977683;28;20034;-58
2020/12/27 05:03:42;;;;;;;4.90;3.38;;;1.80;85.70;;;;;;4985684;28;20080;-58
2020/12/27 05:06:14;;;;;;;5.60;3.17;;;1.80;85.60;;;;;;4984526;28;20069;-58
2020/12/27 05:08:42;;;;;;;3.83;3.00;;;1.80;85.70;;;;;;4990142;28;20030;-57
2020/12/27 05:11:08;;;;;;;5.95;3.10;;;1.80;85.70;;;;;;4989788;28;20077;-58
2020/12/27 05:13:33;;;;;;;4.32;2.97;;;1.80;85.60;;;;;;4989014;28;20434;-56
2020/12/27 05:16:05;;;;;;;3.85;3.00;;;1.80;85.60;;;;;;4988365;28;20042;-58
2020/12/27 05:18:31;;;;;;;3.78;2.60;;;1.80;85.60;;;;;;4971916;28;20050;-57
2020/12/27 05:20:56;;;;;;;3.83;2.75;;;1.70;85.60;;;;;;4992922;28;20398;-56
2020/12/27 05:23:26;;;;;;;4.10;2.90;;;1.80;85.70;;;;;;4999483;28;20034;-58
2020/12/27 05:25:51;;;;;;;3.13;2.22;;;1.70;85.70;;;;;;4980503;28;20505;-58
2020/12/27 05:28:17;;;;;;;4.53;2.97;;;1.80;85.70;;;;;;4983282;28;20030;-60
2020/12/27 05:30:43;;;;;;;4.63;3.13;;;1.70;85.70;;;;;;4989364;28;20081;-58
2020/12/27 05:33:15;;;;;;;5.43;3.15;;;1.70;85.70;;;;;;4983690;28;20543;-59
2020/12/27 05:35:40;;;;;;;4.82;3.13;;;1.70;85.70;;;;;;4988437;28;20022;-59
2020/12/27 05:38:07;;;;;;;3.65;2.92;;;1.70;85.70;;;;;;4983173;28;20031;-59
2020/12/27 05:40:38;;;;;;;4.72;3.08;;;1.70;85.70;;;;;;4992140;28;20080;-57
2020/12/27 05:43:14;;;;;;;4.32;3.08;;;1.70;85.70;;;;;;4991616;28;20040;-58
2020/12/27 05:45:39;;;;;;;4.47;2.83;;;1.70;85.70;;;;;;4992395;28;20493;-59
2020/12/27 05:48:05;;;;;;;5.40;3.15;;;1.70;85.70;;;;;;4984598;28;20040;-59
2020/12/27 05:50:30;;;;;;;4.15;2.95;;;1.70;85.70;;;;;;4992168;28;20034;-58
2020/12/27 05:52:58;;;;;;;4.43;3.22;;;1.70;85.60;;;;;;4974618;28;20031;-60
2020/12/27 05:55:24;;;;;;;4.32;3.13;;;1.70;85.70;;;;;;4970470;28;20569;-56
2020/12/27 05:57:51;;;;;;;3.42;2.90;;;1.70;85.70;;;;;;5006032;28;20106;-56
2020/12/27 06:00:23;;;;;;;3.70;2.75;;;1.70;85.70;;;;;;5008078;28;20058;-58
2020/12/27 06:02:58;;;;;;;3.95;2.95;;;1.70;85.70;;;;;;5007108;28;20026;-56
2020/12/27 06:05:50;;;;;;;5.07;3.33;;;1.70;85.70;;;;;;4985636;28;20015;-58
2020/12/27 06:08:38;;;;;;;5.32;2.72;;;1.70;85.70;;;;;;4979314;28;20185;-58
2020/12/27 06:11:07;;;;;;;3.63;2.70;;;1.70;85.70;;;;;;4983001;28;20057;-56
2020/12/27 06:14:03;;;;;;;3.80;2.88;;;1.70;85.80;;;;;;4993372;28;20092;-59
2020/12/27 06:16:44;;;;;;;4.63;2.90;;;1.70;85.70;;;;;;4975839;28;20029;-57
2020/12/27 06:19:26;;;;;;;3.38;2.53;;;1.70;85.70;;;;;;4980264;28;20144;-57
2020/12/27 06:22:10;;;;;;;3.58;2.35;;;1.70;85.70;;;;;;4988400;28;20068;-56
2020/12/27 06:24:36;;;;;;;4.38;2.97;;;1.70;85.70;;;;;;4972555;28;20029;-60
2020/12/27 06:27:02;;;;;;;4.70;2.72;;;1.70;85.70;;;;;;5007760;28;20057;-58
2020/12/27 06:29:51;;;;;;;4.07;2.88;;;1.70;85.80;;;;;;4991482;28;20085;-58
2020/12/27 06:32:19;;;;;;;3.88;3.15;;;1.70;85.80;;;;;;4975764;28;20423;-57
2020/12/27 06:34:45;;;;;;;3.45;2.75;;;1.70;85.80;;;;;;4968387;28;20027;-57
2020/12/27 06:37:10;;;;;;;4.10;2.97;;;1.70;85.70;;;;;;4972045;28;20034;-59
2020/12/27 06:39:36;;;;;;;4.90;2.92;;;1.70;85.70;;;;;;5001348;28;20037;-58
2020/12/27 06:42:08;;;;;;;4.28;2.78;;;1.70;85.70;;;;;;4981675;28;20033;-59
2020/12/27 06:44:38;;;;;;;4.65;2.80;;;1.70;85.70;;;;;;4989938;28;20515;-59
2020/12/27 06:47:04;;;;;;;3.10;2.60;;;1.70;85.70;;;;;;4984208;28;20030;-58
2020/12/27 06:49:29;;;;;;;3.58;2.50;;;1.70;85.70;;;;;;4990656;28;20034;-58
2020/12/27 06:51:55;;;;;;;4.57;3.05;;;1.70;85.70;;;;;;4989345;28;20050;-58
2020/12/27 06:54:42;;;;;;;4.03;3.00;;;1.70;85.70;;;;;;4988803;28;20386;-56
2020/12/27 06:57:08;;;;;;;3.58;2.83;;;1.70;85.80;;;;;;4990640;28;20117;-59
2020/12/27 06:59:33;;;;;;;3.17;2.80;;;1.70;85.70;;;;;;4983420;28;20113;-59
2020/12/27 07:02:06;;;;;;;6.15;3.10;;;1.70;85.70;;;;;;4977728;28;20100;-59
2020/12/27 07:04:37;;;;;;;4.38;2.80;;;1.70;85.70;;;;;;4984720;28;20026;-56
2020/12/27 07:07:03;;;;;;;4.68;2.97;;;1.70;85.80;;;;;;4985839;28;20374;-58
2020/12/27 07:09:31;;;;;;;3.90;2.92;;;1.70;85.70;;;;;;4992269;28;20080;-59
2020/12/27 07:12:10;;;;;;;4.13;2.88;;;1.70;85.60;;;;;;4987441;28;20034;-57
2020/12/27 07:14:38;;;;;;;3.22;2.78;;;1.70;85.50;;;;;;5003403;28;20114;-57
2020/12/27 07:17:05;;;;;;;4.05;3.15;;;1.70;85.60;;;;;;4990211;28;20033;-57
2020/12/27 07:19:31;;;;;;;4.35;2.42;;;1.70;85.60;;;;;;4990915;28;20030;-56
2020/12/27 07:21:57;;;;;;;3.58;2.65;;;1.70;85.60;;;;;;4974114;28;20057;-58
2020/12/27 07:24:25;;;;;;;4.53;3.22;;;1.70;85.60;;;;;;4973642;28;20022;-58
2020/12/27 07:26:50;;;;;;;4.15;3.00;;;1.70;85.60;;;;;;4966472;28;20034;-57
2020/12/27 07:29:18;;;;;;;2.97;2.67;;;1.70;85.70;;;;;;4990102;28;20068;-59
2020/12/27 07:31:44;;;;;;;3.58;2.60;;;1.70;85.60;;;;;;5004148;28;20022;-57
2020/12/27 07:34:10;;;;;;;4.00;2.95;;;1.70;85.70;;;;;;4990274;28;20037;-59
2020/12/27 07:36:36;;;;;;;3.40;2.85;;;1.70;86.30;;;;;;4990410;28;20506;-58
2020/12/27 07:39:03;;;;;;;3.50;2.80;;;1.70;85.70;;;;;;4986681;28;20502;-57
2020/12/27 07:41:29;;;;;;;3.33;2.50;;;1.70;85.60;;;;;;4991397;28;20026;-59
2020/12/27 07:43:56;;;;;;;4.38;3.08;;;1.70;85.50;;;;;;4970862;28;20050;-59
2020/12/27 07:46:22;;;;;;;4.82;2.63;;;1.70;85.60;;;;;;4982051;28;20103;-57
2020/12/27 07:48:47;;;;;;;3.40;3.10;;;1.70;85.60;;;;;;4979839;28;20034;-59
2020/12/27 07:51:17;;;;;;;3.33;2.60;;;1.70;85.50;;;;;;4961931;28;20035;-60
2020/12/27 07:53:46;;;;;;;4.72;2.88;;;1.70;85.50;;;;;;4977400;28;20027;-56
2020/12/27 07:56:30;;;;;;;5.28;2.85;;;1.70;85.50;;;;;;4985924;28;20022;-56
2020/12/27 07:59:03;;;;;;;3.20;2.72;;;1.70;85.50;;;;;;4986826;28;20133;-60
2020/12/27 08:01:33;;;;;;;4.15;2.70;;;1.70;85.60;;;;;;4989482;28;20030;-57
2020/12/27 08:04:06;;;;;;;3.95;2.42;;;1.70;85.50;;;;;;4982672;28;20026;-58
2020/12/27 08:06:32;;;;;;;4.40;2.58;;;1.70;85.60;;;;;;4985471;28;20022;-56
2020/12/27 08:09:11;;;;;;;5.80;2.72;;;1.70;85.60;;;;;;5006216;28;20034;-57
2020/12/27 08:11:41;;;;;;;4.10;2.85;;;1.80;85.60;;;;;;4990771;28;20362;-56
2020/12/27 08:14:07;;;;;;;4.47;2.67;;;1.70;85.40;;;;;;4990456;28;20544;-57
2020/12/27 08:16:35;;;;;;;4.88;2.80;;;1.70;85.40;;;;;;4978992;28;20105;-57
2020/12/27 08:19:11;;;;;;;3.85;2.70;;;1.70;85.40;;;;;;4982450;28;20085;-58
2020/12/27 08:21:38;;;;;;;3.65;2.83;;;1.70;85.40;;;;;;4982107;28;20480;-57
2020/12/27 08:24:04;;;;;;;3.78;2.70;;;1.70;85.40;;;;;;4986683;28;20030;-57
2020/12/27 08:26:31;;;;;;;3.72;2.65;;;1.70;85.40;;;;;;4985347;28;20045;-58
2020/12/27 08:29:19;;;;;;;3.50;2.80;;;1.70;85.40;;;;;;4981098;28;20038;-56
2020/12/27 08:31:54;;;;;;;3.00;2.47;;;1.70;85.40;;;;;;4983498;28;20045;-59
2020/12/27 08:34:24;;;;;;;4.47;2.72;;;1.70;85.30;;;;;;4984189;28;20498;-60
2020/12/27 08:36:51;;;;;;;3.70;2.72;;;1.70;85.30;;;;;;4988388;28;20454;-57
2020/12/27 08:39:20;;;;;;;3.28;2.75;;;1.70;85.40;;;;;;4996117;28;20475;-56
2020/12/27 08:42:05;;;;;;;3.38;2.35;;;1.70;85.40;;;;;;4982169;28;20052;-58
2020/12/27 08:44:34;;;;;;;4.38;2.60;;;1.70;85.40;;;;;;4985719;28;20687;-58
2020/12/27 08:47:02;;;;;;;3.20;2.55;;;1.70;85.40;;;;;;4985912;28;20515;-56
2020/12/27 08:49:38;;;;;;;3.28;2.20;;;1.70;85.30;;;;;;4983320;28;20026;-56
2020/12/27 08:52:06;;;;;;;3.65;2.72;;;1.70;85.20;;;;;;4978122;28;20023;-56
2020/12/27 08:54:32;;;;;;;3.08;2.47;;;1.80;85.30;;;;;;4983474;28;20032;-57
2020/12/27 08:57:00;;;;;;;3.30;2.53;;;1.80;85.30;;;;;;4981277;28;20140;-61
2020/12/27 08:59:26;;;;;;;4.10;2.70;;;1.70;85.10;;;;;;4985724;28;20029;-59
2020/12/27 09:01:51;;;;;;;3.38;2.53;;;1.70;85.10;;;;;;4989676;28;20022;-60
2020/12/27 09:04:18;;;;;;;3.13;2.53;;;1.80;85.20;;;;;;4990124;28;20030;-61
2020/12/27 09:06:52;;;;;;;3.63;2.72;;;1.80;85.10;;;;;;4984723;28;20125;-58
2020/12/27 09:09:19;;;;;;;4.57;2.55;;;1.80;85.10;;;;;;5003610;28;20044;-56
2020/12/27 09:11:46;;;;;;;4.22;2.80;;;1.90;85.10;;;;;;4982328;28;20023;-57
2020/12/27 09:14:34;;;;;;;3.60;2.40;;;1.80;85.00;;;;;;4981858;28;20242;-57
2020/12/27 09:17:01;;;;;;;3.75;2.83;;;1.80;84.90;;;;;;4988575;28;20077;-59
2020/12/27 09:19:27;;;;;;;4.05;2.60;;;1.80;84.80;;;;;;4979583;28;20054;-61
2020/12/27 09:21:52;;;;;;;2.83;2.22;;;1.80;84.70;;;;;;4982771;28;20093;-60
2020/12/27 09:24:18;;;;;;;3.30;2.80;;;1.90;84.80;;;;;;4978881;28;20474;-59
2020/12/27 09:26:43;;;;;;;4.70;2.70;;;1.80;84.70;;;;;;4989077;28;20467;-59
2020/12/27 09:29:16;;;;;;;2.88;2.55;;;1.90;84.80;;;;;;4987923;28;20105;-60
2020/12/27 09:31:42;;;;;;;3.40;2.53;;;1.90;84.70;;;;;;4987945;28;20065;-58
2020/12/27 09:34:08;;;;;;;3.75;2.50;;;1.90;84.70;;;;;;4976599;28;20631;-60
2020/12/27 09:36:33;;;;;;;2.97;2.55;;;1.90;84.60;;;;;;4982001;28;20046;-56
2020/12/27 09:38:59;;;;;;;2.65;2.20;;;1.90;84.60;;;;;;4978628;28;20023;-59
2020/12/27 09:41:25;;;;;;;3.88;2.70;;;1.90;84.70;;;;;;4983559;28;20025;-58
2020/12/27 09:43:50;;;;;;;2.80;2.47;;;1.90;84.50;;;;;;4987688;28;20449;-56
2020/12/27 09:46:37;;;;;;;3.40;2.58;;;1.90;84.30;;;;;;4989430;28;20039;-56
2020/12/27 09:49:22;;;;;;;4.78;2.75;;;2.00;84.50;;;;;;4985732;28;20038;-58
2020/12/27 09:52:12;;;;;;;5.47;2.95;;;2.00;84.40;;;;;;4975735;28;20041;-57
2020/12/27 09:54:39;;;;;;;3.40;2.30;;;2.00;84.30;;;;;;4982875;28;20549;-57
2020/12/27 09:57:14;;;;;;;2.78;2.22;;;2.00;84.20;;;;;;4983231;28;20050;-58
2020/12/27 09:59:40;;;;;;;3.38;2.90;;;2.00;84.10;;;;;;4984465;28;20141;-58
2020/12/27 10:02:06;;;;;;;4.05;3.10;;;2.10;84.20;;;;;;5001510;28;20026;-59
2020/12/27 10:04:32;;;;;;;3.50;2.50;;;2.00;84.20;;;;;;4984658;28;20033;-58
2020/12/27 10:06:57;;;;;;;5.15;2.70;;;2.00;84.20;;;;;;4982355;28;20040;-59
2020/12/27 10:09:23;;;;;;;4.55;2.67;;;2.10;84.20;;;;;;4987856;28;20022;-57
2020/12/27 10:11:48;;;;;;;3.72;2.60;;;2.10;84.20;;;;;;4988362;28;20073;-58
2020/12/27 10:14:14;;;;;;;3.30;2.75;;;2.10;84.10;;;;;;5003519;28;20073;-58
2020/12/27 10:16:39;;;;;;;3.75;2.80;;;2.10;84.00;;;;;;4983260;28;20042;-58
2020/12/27 10:19:05;;;;;;;3.53;2.83;;;2.10;83.90;;;;;;4983879;28;20520;-59
2020/12/27 10:21:30;;;;;;;3.72;2.65;;;2.20;83.80;;;;;;4988138;28;20050;-59
2020/12/27 10:23:56;;;;;;;3.90;2.92;;;2.10;83.80;;;;;;4991577;28;20113;-59
2020/12/27 10:26:21;;;;;;;3.63;2.85;;;2.20;83.80;;;;;;4992408;28;20106;-58
2020/12/27 10:28:47;;;;;;;3.20;2.47;;;2.20;83.60;;;;;;4990931;28;20046;-56
2020/12/27 10:31:12;;;;;;;3.35;2.63;;;2.20;83.70;;;;;;4991592;28;20964;-56
2020/12/27 10:33:38;;;;;;;5.95;2.58;;;2.20;83.60;;;;;;4993148;28;20470;-57
2020/12/27 10:36:03;;;;;;;3.67;2.85;;;2.20;83.70;;;;;;4988615;28;20046;-58
2020/12/27 10:38:29;;;;;;;4.22;2.92;;;2.30;83.70;;;;;;4982346;28;20457;-57
2020/12/27 10:40:54;;;;;;;3.55;2.90;;;2.20;83.70;;;;;;4982629;28;20026;-58
2020/12/27 10:43:20;;;;;;;3.10;2.80;;;2.20;83.60;;;;;;4970722;28;20393;-59
2020/12/27 10:45:46;;;;;;;3.08;2.30;;;2.20;83.50;;;;;;4971410;28;20037;-57
2020/12/27 10:48:11;;;;;;;3.20;2.80;;;2.20;83.50;;;;;;4989972;28;20121;-57
2020/12/27 10:50:38;;;;;;;3.13;2.60;;;2.30;83.50;;;;;;4992861;28;20110;-58
2020/12/27 10:53:04;;;;;;;4.05;2.80;;;2.30;83.50;;;;;;4986641;28;20026;-57
2020/12/27 10:55:29;;;;;;;3.45;2.72;;;2.30;83.50;;;;;;4987779;28;20343;-57
2020/12/27 10:57:55;;;;;;;3.40;2.78;;;2.30;83.40;;;;;;4993048;28;20045;-57
2020/12/27 11:00:20;;;;;;;4.78;2.90;;;2.40;83.40;;;;;;4958369;28;20431;-57
2020/12/27 11:02:46;;;;;;;3.15;2.83;;;2.40;83.30;;;;;;4987939;28;20103;-56
2020/12/27 11:05:11;;;;;;;3.03;2.70;;;2.30;83.20;;;;;;4989047;28;20055;-56
2020/12/27 11:07:37;;;;;;;3.85;2.80;;;2.40;83.30;;;;;;4990425;28;20038;-58
2020/12/27 11:10:03;;;;;;;3.65;2.55;;;2.40;83.20;;;;;;4983976;28;20081;-59
2020/12/27 11:12:28;;;;;;;4.18;2.80;;;2.40;83.20;;;;;;4991400;28;20033;-57
2020/12/27 11:14:54;;;;;;;3.88;2.63;;;2.40;83.10;;;;;;4990981;28;20034;-59
2020/12/27 11:17:19;;;;;;;3.65;2.75;;;2.40;82.80;;;;;;4992154;28;20042;-58
2020/12/27 11:19:44;;;;;;;3.40;2.65;;;2.40;82.80;;;;;;4983011;28;20019;-58
2020/12/27 11:22:10;;;;;;;4.28;2.92;;;2.40;82.60;;;;;;4990775;28;20035;-57
2020/12/27 11:24:35;;;;;;;3.60;2.75;;;2.50;82.60;;;;;;4993041;28;20026;-58
2020/12/27 11:27:01;;;;;;;3.47;2.50;;;2.50;82.50;;;;;;4988289;28;20030;-58
2020/12/27 11:29:26;;;;;;;3.83;3.10;;;2.60;82.30;;;;;;5007609;28;20030;-58
2020/12/27 11:31:53;;;;;;;4.63;3.00;;;2.60;82.10;;;;;;4991124;28;20077;-59
2020/12/27 11:34:19;;;;;;;3.97;2.90;;;2.60;81.80;;;;;;4988209;28;20081;-56
2020/12/27 11:36:48;;;;;;;3.45;2.83;;;2.60;81.80;;;;;;4987607;28;20030;-58
2020/12/27 11:39:13;;;;;;;4.57;2.65;;;2.60;82.20;;;;;;4992233;28;20409;-56
2020/12/27 11:41:39;;;;;;;3.30;2.75;;;2.60;81.70;;;;;;4991271;28;20022;-59
2020/12/27 11:44:04;;;;;;;3.75;2.92;;;2.70;81.60;;;;;;4990181;28;20050;-59
2020/12/27 11:46:30;;;;;;;3.42;3.00;;;2.60;81.30;;;;;;4989810;28;20042;-58
2020/12/27 11:48:55;;;;;;;3.55;2.60;;;2.70;81.80;;;;;;4989841;28;20035;-58
2020/12/27 11:51:21;;;;;;;3.75;2.85;;;2.70;81.80;;;;;;4991029;28;20037;-56
2020/12/27 11:53:46;;;;;;;3.67;2.63;;;2.70;81.80;;;;;;4991905;28;20482;-56
2020/12/27 11:56:19;;;;;;;5.97;2.75;;;2.70;81.40;;;;;;4991713;28;20043;-57
2020/12/27 11:58:44;;;;;;;3.13;2.47;;;2.70;81.10;;;;;;5002618;28;20034;-57
2020/12/27 12:01:13;;;;;;;3.42;2.63;;;2.70;81.10;;;;;;4984078;28;20394;-56
2020/12/27 12:03:41;;;;;;;3.60;2.95;;;2.70;81.10;;;;;;4990023;28;20461;-57
2020/12/27 12:06:07;;;;;;;6.65;2.75;;;2.80;81.30;;;;;;4991541;28;20101;-57
2020/12/27 12:08:32;;;;;;;3.55;2.80;;;2.80;81.00;;;;;;4989048;28;20125;-58
2020/12/27 12:10:58;;;;;;;3.28;2.63;;;2.80;81.30;;;;;;4990626;28;20532;-59
2020/12/27 12:13:23;;;;;;;3.70;2.80;;;2.80;81.30;;;;;;4989691;28;20248;-57
2020/12/27 12:15:49;;;;;;;3.15;2.50;;;2.80;81.10;;;;;;4985409;28;20030;-57
2020/12/27 12:18:14;;;;;;;3.65;2.75;;;2.80;81.00;;;;;;4979381;28;20030;-57
2020/12/27 12:20:42;;;;;;;3.53;2.58;;;2.80;81.00;;;;;;4987973;28;20045;-59
2020/12/27 12:23:08;;;;;;;3.58;2.47;;;2.90;81.00;;;;;;4984434;28;20030;-58
2020/12/27 12:25:34;;;;;;;4.93;2.70;;;2.90;81.00;;;;;;4989629;28;20081;-57
2020/12/27 12:28:00;;;;;;;2.83;2.53;;;2.90;80.90;;;;;;4985492;28;20061;-59
2020/12/27 12:30:26;;;;;;;3.17;2.50;;;2.90;81.00;;;;;;4989936;28;20077;-59
2020/12/27 12:32:52;;;;;;;3.60;2.50;;;2.90;81.00;;;;;;4988997;28;20423;-58
2020/12/27 12:35:17;;;;;;;3.35;2.40;;;2.90;80.80;;;;;;4985915;28;20061;-56
2020/12/27 12:37:43;;;;;;;3.10;2.30;;;3.00;81.00;;;;;;4984448;28;20057;-57
2020/12/27 12:40:08;;;;;;;3.58;2.30;;;2.90;81.00;;;;;;4984904;28;20018;-58
2020/12/27 12:42:37;;;;;;;3.13;2.47;;;3.00;80.90;;;;;;4985364;28;20445;-57
2020/12/27 12:45:04;;;;;;;2.78;2.25;;;3.00;80.80;;;;;;4987953;28;20108;-56
2020/12/27 12:47:30;;;;;;;3.40;2.40;;;3.00;80.90;;;;;;4984504;28;20034;-58
2020/12/27 12:49:56;;;;;;;3.00;2.17;;;3.00;81.00;;;;;;4982860;28;20285;-56
2020/12/27 12:52:21;;;;;;;2.75;2.38;;;3.00;81.10;;;;;;4981173;28;20053;-59
2020/12/27 12:54:47;;;;;;;3.22;2.65;;;3.00;81.00;;;;;;4983435;28;20078;-56
2020/12/27 12:57:12;;;;;;;3.67;2.45;;;3.00;80.90;;;;;;4989349;28;20033;-58
2020/12/27 12:59:38;;;;;;;2.97;2.40;;;3.00;80.90;;;;;;4985627;28;20046;-58